createdAt,value
2019-01-13T00:02:01.039Z,101115.36
2019-01-13T00:04:29.883Z,101111.20
2019-01-13T00:06:58.947Z,101106.16
2019-01-13T00:09:27.695Z,101111.33
2019-01-13T00:11:56.552Z,101111.42
2019-01-13T00:14:26.811Z,101115.52
2019-01-13T00:16:54.134Z,101103.91
2019-01-13T00:19:22.921Z,101104.71
2019-01-13T00:21:51.732Z,101093.36
2019-01-13T00:24:20.522Z,101080.06
2019-01-13T00:26:49.311Z,101077.23
2019-01-13T00:29:18.231Z,101079.91
2019-01-13T00:31:47.016Z,101082.61
2019-01-13T00:34:15.822Z,101084.67
2019-01-13T00:36:44.603Z,101091.64
2019-01-13T00:39:13.403Z,101088.94
2019-01-13T00:41:42.189Z,101081.19
2019-01-13T00:44:11.006Z,101080.42
2019-01-13T00:46:39.787Z,101085.19
2019-01-13T00:49:08.571Z,101088.16
2019-01-13T00:51:37.446Z,101081.06
2019-01-13T00:54:06.294Z,101079.77
2019-01-13T00:56:35.083Z,101081.67
2019-01-13T00:59:03.911Z,101081.80
2019-01-13T01:01:32.802Z,101079.52
2019-01-13T01:04:01.621Z,101085.06
2019-01-13T01:06:30.547Z,101089.33
2019-01-13T01:08:59.693Z,101085.32
2019-01-13T01:11:28.581Z,101072.03
2019-01-13T01:13:57.446Z,101078.09
2019-01-13T01:16:26.259Z,101068.16
2019-01-13T01:18:55.079Z,101067.77
2019-01-13T01:21:23.891Z,101064.41
2019-01-13T01:23:52.727Z,101055.86
2019-01-13T01:26:21.512Z,101051.73
2019-01-13T01:28:50.363Z,101044.89
2019-01-13T01:31:19.171Z,101043.59
2019-01-13T01:33:47.973Z,101040.63
2019-01-13T01:36:16.812Z,101027.20
2019-01-13T01:38:45.657Z,101028.75
2019-01-13T01:41:14.466Z,101025.40
2019-01-13T01:43:43.354Z,101005.78
2019-01-13T01:46:12.143Z,101007.28
2019-01-13T01:48:40.983Z,101006.09
2019-01-13T01:51:09.811Z,101004.70
2019-01-13T01:53:38.599Z,100999.64
2019-01-13T01:56:07.409Z,100995.77
2019-01-13T01:58:36.194Z,100994.59
2019-01-13T02:01:05.039Z,100994.69
2019-01-13T02:03:33.845Z,101010.30
2019-01-13T02:06:03.430Z,101022.83
2019-01-13T02:08:32.313Z,101018.56
2019-01-13T02:11:01.207Z,101014.18
2019-01-13T02:13:30.006Z,101025.80
2019-01-13T02:15:58.867Z,101023.99
2019-01-13T02:18:27.732Z,101020.80
2019-01-13T02:20:56.515Z,101027.38
2019-01-13T02:23:25.371Z,101025.67
2019-01-13T02:25:54.227Z,101032.25
2019-01-13T02:28:23.042Z,101042.75
2019-01-13T02:30:51.917Z,101044.42
2019-01-13T02:33:20.698Z,101042.62
2019-01-13T02:35:49.549Z,101033.87
2019-01-13T02:38:18.650Z,101024.07
2019-01-13T02:40:47.449Z,101018.09
2019-01-13T02:43:16.327Z,101004.19
2019-01-13T02:45:45.113Z,101010.48
2019-01-13T02:48:13.949Z,101014.56
2019-01-13T02:50:42.744Z,101003.56
2019-01-13T02:53:11.549Z,100990.48
2019-01-13T02:55:40.389Z,100986.73
2019-01-13T02:58:09.179Z,100978.59
2019-01-13T03:00:38.000Z,100971.36
2019-01-13T03:03:08.046Z,100959.31
2019-01-13T03:05:37.736Z,100954.28
2019-01-13T03:08:06.550Z,100958.16
2019-01-13T03:10:35.335Z,100971.96
2019-01-13T03:13:04.173Z,100952.47
2019-01-13T03:15:33.056Z,100943.05
2019-01-13T03:18:01.831Z,100936.20
2019-01-13T03:20:30.651Z,100929.88
2019-01-13T03:22:59.436Z,100931.94
2019-01-13T03:25:28.232Z,100921.31
2019-01-13T03:27:57.083Z,100913.30
2019-01-13T03:30:25.956Z,100902.45
2019-01-13T03:32:55.652Z,100899.88
2019-01-13T03:35:24.630Z,100898.07
2019-01-13T03:37:53.407Z,100905.34
2019-01-13T03:40:24.070Z,100909.09
2019-01-13T03:42:52.933Z,100905.73
2019-01-13T03:45:21.803Z,100914.47
2019-01-13T03:47:50.581Z,100908.91
2019-01-13T03:50:21.109Z,100904.34
2019-01-13T03:52:53.262Z,100897.11
2019-01-13T03:55:19.862Z,100883.30
2019-01-13T03:57:48.659Z,100872.19
2019-01-13T04:00:20.208Z,100857.68
2019-01-13T04:02:49.601Z,100848.13
2019-01-13T04:05:18.390Z,100833.92
2019-01-13T04:07:47.178Z,100837.02
2019-01-13T04:10:16.290Z,100828.49
2019-01-13T04:12:45.206Z,100826.12
2019-01-13T04:15:21.928Z,100826.51
2019-01-13T04:17:50.715Z,100807.73
2019-01-13T04:20:19.525Z,100812.42
2019-01-13T04:22:48.342Z,100815.48
2019-01-13T04:25:17.267Z,100809.84
2019-01-13T04:27:46.146Z,100804.28
2019-01-13T04:30:14.957Z,100793.53
2019-01-13T04:32:43.748Z,100777.25
2019-01-13T04:35:12.568Z,100775.17
2019-01-13T04:37:41.346Z,100762.77
2019-01-13T04:40:10.250Z,100766.34
2019-01-13T04:42:39.053Z,100760.19
2019-01-13T04:45:07.841Z,100750.96
2019-01-13T04:47:36.686Z,100752.34
2019-01-13T04:50:05.765Z,100720.05
2019-01-13T04:52:34.570Z,100722.63
2019-01-13T04:55:03.385Z,100717.77
2019-01-13T04:57:32.276Z,100721.34
2019-01-13T05:00:01.161Z,100713.98
2019-01-13T05:02:30.727Z,100715.90
2019-01-13T05:04:59.538Z,100703.56
2019-01-13T05:07:28.331Z,100719.86
2019-01-13T05:09:57.187Z,100715.90
2019-01-13T05:12:27.809Z,100712.89
2019-01-13T05:14:54.860Z,100712.50
2019-01-13T05:17:23.707Z,100715.90
2019-01-13T05:19:52.561Z,100708.63
2019-01-13T05:22:21.450Z,100707.05
2019-01-13T05:24:50.318Z,100710.23
2019-01-13T05:27:19.087Z,100707.14
2019-01-13T05:29:47.927Z,100706.75
2019-01-13T05:32:16.754Z,100701.07
2019-01-13T05:34:45.598Z,100705.57
2019-01-13T05:37:14.438Z,100699.50
2019-01-13T05:39:43.297Z,100700.29
2019-01-13T05:42:12.139Z,100696.02
2019-01-13T05:44:41.024Z,100691.95
2019-01-13T05:47:09.891Z,100690.55
2019-01-13T05:49:38.779Z,100681.11
2019-01-13T05:52:07.575Z,100676.45
2019-01-13T05:54:36.395Z,100673.56
2019-01-13T05:57:05.187Z,100671.98
2019-01-13T05:59:34.038Z,100662.16
2019-01-13T06:02:02.955Z,100662.24
2019-01-13T06:04:31.775Z,100662.24
2019-01-13T06:07:00.662Z,100658.76
2019-01-13T06:09:29.448Z,100648.42
2019-01-13T06:11:58.331Z,100663.14
2019-01-13T06:14:27.120Z,100659.77
2019-01-13T06:16:55.887Z,100652.92
2019-01-13T06:19:24.935Z,100649.91
2019-01-13T06:21:53.723Z,100645.56
2019-01-13T06:24:22.511Z,100651.70
2019-01-13T06:26:51.444Z,100648.34
2019-01-13T06:29:20.263Z,100646.26
2019-01-13T06:31:56.110Z,100640.39
2019-01-13T06:34:18.051Z,100643.55
2019-01-13T06:36:46.844Z,100641.88
2019-01-13T06:39:15.612Z,100628.56
2019-01-13T06:41:44.483Z,100632.23
2019-01-13T06:44:13.316Z,100640.57
2019-01-13T06:46:42.104Z,100635.80
2019-01-13T06:49:10.960Z,100633.72
2019-01-13T06:51:39.759Z,100635.98
2019-01-13T06:54:08.619Z,100623.88
2019-01-13T06:56:37.506Z,100620.20
2019-01-13T06:59:06.306Z,100616.40
2019-01-13T07:01:35.156Z,100609.15
2019-01-13T07:04:06.174Z,100623.48
2019-01-13T07:06:34.967Z,100624.45
2019-01-13T07:09:04.366Z,100616.70
2019-01-13T07:11:33.274Z,100609.05
2019-01-13T07:14:02.139Z,100607.34
2019-01-13T07:16:30.995Z,100610.35
2019-01-13T07:18:59.785Z,100591.44
2019-01-13T07:21:28.671Z,100602.39
2019-01-13T07:23:57.464Z,100606.73
2019-01-13T07:26:26.253Z,100608.03
2019-01-13T07:28:55.120Z,100607.56
2019-01-13T07:31:23.919Z,100614.10
2019-01-13T07:33:52.711Z,100623.55
2019-01-13T07:36:21.530Z,100617.47
2019-01-13T07:38:50.330Z,100609.72
2019-01-13T07:41:19.138Z,100610.73
2019-01-13T07:43:47.930Z,100614.61
2019-01-13T07:46:16.711Z,100616.41
2019-01-13T07:48:45.520Z,100609.72
2019-01-13T07:51:14.363Z,100613.00
2019-01-13T07:53:43.146Z,100616.87
2019-01-13T07:56:12.511Z,100607.03
2019-01-13T07:58:41.808Z,100607.15
2019-01-13T08:01:10.583Z,100606.33
2019-01-13T08:03:39.371Z,100590.92
2019-01-13T08:06:08.219Z,100587.83
2019-01-13T08:08:37.071Z,100596.48
2019-01-13T08:11:05.870Z,100592.61
2019-01-13T08:13:34.643Z,100591.42
2019-01-13T08:16:03.418Z,100601.34
2019-01-13T08:18:33.149Z,100590.61
2019-01-13T08:21:02.059Z,100591.42
2019-01-13T08:23:30.906Z,100574.72
2019-01-13T08:25:59.667Z,100578.18
2019-01-13T08:28:28.558Z,100567.84
2019-01-13T08:30:57.377Z,100579.23
2019-01-13T08:33:26.201Z,100567.62
2019-01-13T08:35:55.039Z,100562.34
2019-01-13T08:38:23.919Z,100565.76
2019-01-13T08:40:52.713Z,100567.23
2019-01-13T08:43:21.505Z,100560.77
2019-01-13T08:45:50.615Z,100558.90
2019-01-13T08:48:19.827Z,100564.14
2019-01-13T08:50:49.344Z,100555.59
2019-01-13T08:53:18.123Z,100543.97
2019-01-13T08:55:46.912Z,100546.55
2019-01-13T08:58:15.701Z,100539.30
2019-01-13T09:00:45.363Z,100528.95
2019-01-13T09:03:14.243Z,100535.09
2019-01-13T09:05:43.084Z,100536.39
2019-01-13T09:08:11.986Z,100527.34
2019-01-13T09:10:40.831Z,100529.53
2019-01-13T09:13:11.794Z,100530.42
2019-01-13T09:15:40.602Z,100514.41
2019-01-13T09:18:09.405Z,100519.66
2019-01-13T09:20:38.236Z,100507.62
2019-01-13T09:23:07.108Z,100513.41
2019-01-13T09:25:37.058Z,100509.81
2019-01-13T09:28:07.007Z,100503.45
2019-01-13T09:30:35.783Z,100493.00
2019-01-13T09:33:05.637Z,100509.02
2019-01-13T09:35:35.199Z,100517.17
2019-01-13T09:38:06.677Z,100510.60
2019-01-13T09:40:34.527Z,100506.44
2019-01-13T09:43:03.643Z,100503.45
2019-01-13T09:45:32.556Z,100507.80
2019-01-13T09:48:01.400Z,100517.07
2019-01-13T09:50:30.255Z,100506.30
2019-01-13T09:52:59.053Z,100510.78
2019-01-13T09:55:27.865Z,100502.34
2019-01-13T09:57:56.659Z,100507.19
2019-01-13T10:00:31.291Z,100492.68
2019-01-13T10:03:00.144Z,100497.92
2019-01-13T10:05:28.983Z,100489.27
2019-01-13T10:07:57.827Z,100484.98
2019-01-13T10:10:26.696Z,100484.52
2019-01-13T10:12:55.515Z,100472.16
2019-01-13T10:15:24.340Z,100463.61
2019-01-13T10:17:53.120Z,100454.73
2019-01-13T10:20:22.038Z,100451.33
2019-01-13T10:22:50.843Z,100455.70
2019-01-13T10:25:19.637Z,100456.61
2019-01-13T10:27:48.525Z,100465.16
2019-01-13T10:30:20.815Z,100459.91
2019-01-13T10:32:54.706Z,100460.30
2019-01-13T10:35:18.426Z,100453.27
2019-01-13T10:37:47.271Z,100444.69
2019-01-13T10:40:17.986Z,100438.22
2019-01-13T10:42:46.836Z,100427.41
2019-01-13T10:45:15.723Z,100424.48
2019-01-13T10:47:44.498Z,100410.48
2019-01-13T10:50:18.113Z,100423.30
2019-01-13T10:52:46.876Z,100414.94
2019-01-13T10:55:15.995Z,100433.32
2019-01-13T10:57:44.863Z,100430.73
2019-01-13T11:00:17.476Z,100423.08
2019-01-13T11:02:46.278Z,100418.48
2019-01-13T11:05:15.100Z,100414.59
2019-01-13T11:07:43.952Z,100408.70
2019-01-13T11:10:13.658Z,100406.61
2019-01-13T11:12:42.514Z,100394.97
2019-01-13T11:15:11.451Z,100393.58
2019-01-13T11:17:40.235Z,100392.38
2019-01-13T11:20:15.576Z,100373.55
2019-01-13T11:22:44.415Z,100374.45
2019-01-13T11:25:13.316Z,100372.36
2019-01-13T11:27:42.211Z,100368.30
2019-01-13T11:30:13.899Z,100353.41
2019-01-13T11:32:42.800Z,100352.02
2019-01-13T11:35:11.977Z,100348.92
2019-01-13T11:37:40.751Z,100349.36
2019-01-13T11:40:11.404Z,100350.16
2019-01-13T11:42:40.194Z,100351.52
2019-01-13T11:45:09.696Z,100342.45
2019-01-13T11:47:38.496Z,100339.02
2019-01-13T11:50:10.441Z,100323.49
2019-01-13T11:52:39.311Z,100306.30
2019-01-13T11:55:09.638Z,100322.99
2019-01-13T11:57:38.461Z,100314.34
2019-01-13T12:00:12.331Z,100300.11
2019-01-13T12:02:41.267Z,100303.77
2019-01-13T12:05:10.053Z,100304.42
2019-01-13T12:07:38.839Z,100310.73
2019-01-13T12:10:09.967Z,100302.30
2019-01-13T12:12:38.782Z,100297.52
2019-01-13T12:15:10.295Z,100311.85
2019-01-13T12:17:39.073Z,100312.14
2019-01-13T12:20:09.939Z,100290.95
2019-01-13T12:22:38.799Z,100288.87
2019-01-13T12:25:08.838Z,100288.57
2019-01-13T12:27:37.648Z,100269.47
2019-01-13T12:30:08.147Z,100271.76
2019-01-13T12:32:36.947Z,100254.12
2019-01-13T12:35:05.831Z,100265.86
2019-01-13T12:37:34.628Z,100261.08
2019-01-13T12:40:03.463Z,100269.34
2019-01-13T12:42:32.291Z,100256.70
2019-01-13T12:45:01.100Z,100256.70
2019-01-13T12:47:29.991Z,100240.78
2019-01-13T12:49:58.849Z,100253.66
2019-01-13T12:52:27.698Z,100237.41
2019-01-13T12:54:56.528Z,100219.86
2019-01-13T12:57:25.312Z,100224.73
2019-01-13T12:59:54.176Z,100207.81
2019-01-13T13:02:23.026Z,100204.73
2019-01-13T13:04:51.834Z,100210.06
2019-01-13T13:07:20.739Z,100210.00
2019-01-13T13:09:49.617Z,100216.97
2019-01-13T13:12:18.489Z,100203.70
2019-01-13T13:14:47.331Z,100207.08
2019-01-13T13:17:16.124Z,100196.84
2019-01-13T13:19:44.945Z,100197.39
2019-01-13T13:22:13.733Z,100185.69
2019-01-13T13:24:42.576Z,100173.45
2019-01-13T13:27:11.495Z,100197.97
2019-01-13T13:29:40.346Z,100198.86
2019-01-13T13:32:09.155Z,100189.87
2019-01-13T13:34:37.923Z,100189.80
2019-01-13T13:37:06.728Z,100183.64
2019-01-13T13:39:35.506Z,100199.50
2019-01-13T13:42:04.295Z,100192.53
2019-01-13T13:44:33.133Z,100200.78
2019-01-13T13:47:01.976Z,100186.95
2019-01-13T13:49:30.959Z,100166.66
2019-01-13T13:51:59.760Z,100176.61
2019-01-13T13:54:28.657Z,100175.32
2019-01-13T13:56:57.451Z,100181.05
2019-01-13T13:59:26.291Z,100180.98
2019-01-13T14:01:55.088Z,100176.12
2019-01-13T14:04:23.907Z,100183.48
2019-01-13T14:06:52.697Z,100176.22
2019-01-13T14:09:21.567Z,100183.48
2019-01-13T14:11:50.344Z,100169.34
2019-01-13T14:14:19.147Z,100174.52
2019-01-13T14:16:48.039Z,100178.80
2019-01-13T14:19:16.839Z,100172.33
2019-01-13T14:21:45.633Z,100175.72
2019-01-13T14:24:14.505Z,100169.16
2019-01-13T14:26:43.275Z,100152.34
2019-01-13T14:29:12.222Z,100160.69
2019-01-13T14:31:41.092Z,100144.34
2019-01-13T14:34:09.851Z,100134.98
2019-01-13T14:36:38.661Z,100152.94
2019-01-13T14:39:08.384Z,100159.47
2019-01-13T14:41:37.167Z,100147.76
2019-01-13T14:44:06.027Z,100148.32
2019-01-13T14:46:34.941Z,100136.58
2019-01-13T14:49:03.547Z,100150.51
2019-01-13T14:51:32.375Z,100151.00
2019-01-13T14:54:01.231Z,100133.30
2019-01-13T14:56:30.086Z,100137.64
2019-01-13T14:59:00.047Z,100149.27
2019-01-13T15:01:28.858Z,100135.94
2019-01-13T15:04:00.018Z,100134.25
2019-01-13T15:06:26.592Z,100142.11
2019-01-13T15:08:55.623Z,100133.52
2019-01-13T15:11:24.451Z,100133.52
2019-01-13T15:13:53.291Z,100145.09
2019-01-13T15:16:22.120Z,100129.41
2019-01-13T15:18:50.968Z,100130.87
2019-01-13T15:21:19.763Z,100126.89
2019-01-13T15:23:48.682Z,100127.29
2019-01-13T15:26:17.526Z,100125.59
2019-01-13T15:28:46.420Z,100125.59
2019-01-13T15:31:15.315Z,100131.27
2019-01-13T15:33:44.151Z,100127.88
2019-01-13T15:36:13.027Z,100125.30
2019-01-13T15:38:41.833Z,100125.69
2019-01-13T15:41:10.707Z,100124.40
2019-01-13T15:43:39.566Z,100124.46
2019-01-13T15:46:08.360Z,100123.17
2019-01-13T15:48:37.172Z,100121.08
2019-01-13T15:51:05.971Z,100121.87
2019-01-13T15:53:34.818Z,100125.69
2019-01-13T15:56:03.646Z,100120.52
2019-01-13T15:58:32.566Z,100115.41
2019-01-13T16:01:01.495Z,100109.77
2019-01-13T16:03:30.380Z,100116.23
2019-01-13T16:05:59.219Z,100106.69
2019-01-13T16:08:28.067Z,100117.03
2019-01-13T16:10:56.957Z,100115.84
2019-01-13T16:13:25.753Z,100105.06
2019-01-13T16:15:54.996Z,100095.20
2019-01-13T16:18:23.859Z,100108.94
2019-01-13T16:20:52.691Z,100094.31
2019-01-13T16:23:21.543Z,100102.97
2019-01-13T16:25:50.369Z,100090.92
2019-01-13T16:28:19.218Z,100096.00
2019-01-13T16:30:48.012Z,100083.96
2019-01-13T16:33:16.848Z,100089.48
2019-01-13T16:35:45.706Z,100073.20
2019-01-13T16:38:14.660Z,100073.88
2019-01-13T16:40:47.490Z,100077.42
2019-01-13T16:43:16.418Z,100076.23
2019-01-13T16:45:45.380Z,100078.38
2019-01-13T16:48:19.711Z,100075.39
2019-01-13T16:50:49.553Z,100067.73
2019-01-13T16:53:21.151Z,100072.34
2019-01-13T16:55:50.004Z,100058.58
2019-01-13T16:58:18.902Z,100068.53
2019-01-13T17:00:47.772Z,100068.47
2019-01-13T17:03:16.677Z,100070.80
2019-01-13T17:05:45.847Z,100083.22
2019-01-13T17:08:14.656Z,100123.30
2019-01-13T17:10:43.453Z,100112.64
2019-01-13T17:13:12.255Z,100131.24
2019-01-13T17:15:41.067Z,100123.41
2019-01-13T17:18:09.892Z,100140.47
2019-01-13T17:20:38.706Z,100137.44
2019-01-13T17:23:07.610Z,100145.63
2019-01-13T17:25:36.524Z,100136.13
2019-01-13T17:28:05.375Z,100110.70
2019-01-13T17:30:35.354Z,100102.05
2019-01-13T17:33:04.467Z,100122.20
2019-01-13T17:35:33.291Z,100109.01
2019-01-13T17:38:02.164Z,100119.22
2019-01-13T17:40:30.969Z,100128.58
2019-01-13T17:42:59.763Z,100135.93
2019-01-13T17:45:31.256Z,100116.08
2019-01-13T17:48:00.102Z,100105.86
2019-01-13T17:50:28.944Z,100109.45
2019-01-13T17:52:57.751Z,100107.38
2019-01-13T17:55:27.743Z,100109.28
2019-01-13T17:57:56.591Z,100122.01
2019-01-13T18:00:34.334Z,100121.61
2019-01-13T18:03:03.496Z,100119.42
2019-01-13T18:05:32.332Z,100112.41
2019-01-13T18:08:01.131Z,100126.27
2019-01-13T18:10:29.996Z,100121.22
2019-01-13T18:13:00.247Z,100120.43
2019-01-13T18:15:29.219Z,100120.21
2019-01-13T18:17:58.058Z,100128.52
2019-01-13T18:20:26.836Z,100132.89
2019-01-13T18:22:55.636Z,100128.70
2019-01-13T18:25:24.456Z,100133.14
2019-01-13T18:27:53.389Z,100140.70
2019-01-13T18:30:23.351Z,100129.59
2019-01-13T18:32:52.135Z,100142.28
2019-01-13T18:35:21.487Z,100144.64
2019-01-13T18:37:50.260Z,100141.27
2019-01-13T18:40:19.383Z,100140.59
2019-01-13T18:42:48.200Z,100149.13
2019-01-13T18:45:17.022Z,100151.42
2019-01-13T18:47:45.855Z,100141.16
2019-01-13T18:50:16.547Z,100138.98
2019-01-13T18:52:50.094Z,100146.05
2019-01-13T18:55:18.939Z,100141.38
2019-01-13T18:57:47.723Z,100136.15
2019-01-13T19:00:18.747Z,100150.81
2019-01-13T19:02:47.627Z,100154.78
2019-01-13T19:05:18.364Z,100142.00
2019-01-13T19:07:47.152Z,100151.81
2019-01-13T19:10:23.610Z,100149.84
2019-01-13T19:12:57.076Z,100154.83
2019-01-13T19:15:25.864Z,100160.89
2019-01-13T19:17:56.236Z,100167.08
2019-01-13T19:20:28.296Z,100158.73
2019-01-13T19:23:01.372Z,100167.00
2019-01-13T19:25:32.220Z,100171.88
2019-01-13T19:28:01.011Z,100178.64
2019-01-13T19:30:29.854Z,100181.41
2019-01-13T19:32:58.633Z,100172.70
2019-01-13T19:35:27.436Z,100183.19
2019-01-13T19:37:56.342Z,100176.61
2019-01-13T19:40:25.239Z,100179.09
2019-01-13T19:42:54.035Z,100185.83
2019-01-13T19:45:22.840Z,100186.69
2019-01-13T19:47:51.668Z,100187.69
2019-01-13T19:50:22.671Z,100192.13
2019-01-13T19:52:51.495Z,100198.88
2019-01-13T19:55:20.305Z,100189.23
2019-01-13T19:57:49.095Z,100201.34
2019-01-13T20:00:20.967Z,100201.34
2019-01-13T20:02:49.570Z,100214.25
2019-01-13T20:05:18.350Z,100223.00
2019-01-13T20:07:47.240Z,100230.23
2019-01-13T20:10:16.050Z,100214.25
2019-01-13T20:12:44.863Z,100215.44
2019-01-13T20:15:14.132Z,100215.94
2019-01-13T20:17:43.604Z,100214.65
2019-01-13T20:20:13.735Z,100228.16
2019-01-13T20:22:42.523Z,100230.41
2019-01-13T20:25:12.123Z,100230.34
2019-01-13T20:27:40.934Z,100234.92
2019-01-13T20:30:13.810Z,100212.02
2019-01-13T20:32:43.666Z,100206.54
2019-01-13T20:35:18.983Z,100238.69
2019-01-13T20:37:41.343Z,100236.90
2019-01-13T20:40:10.276Z,100252.56
2019-01-13T20:42:39.115Z,100257.61
2019-01-13T20:45:12.448Z,100249.01
2019-01-13T20:47:41.236Z,100253.14
2019-01-13T20:50:11.707Z,100262.28
2019-01-13T20:52:40.595Z,100247.59
2019-01-13T20:55:09.874Z,100248.88
2019-01-13T20:57:38.721Z,100253.25
2019-01-13T21:00:10.647Z,100265.76
2019-01-13T21:02:39.924Z,100257.23
2019-01-13T21:05:08.695Z,100264.75
2019-01-13T21:07:37.499Z,100275.60
2019-01-13T21:10:07.852Z,100263.02
2019-01-13T21:12:36.634Z,100262.01
2019-01-13T21:15:07.301Z,100257.45
2019-01-13T21:17:36.382Z,100266.30
2019-01-13T21:20:06.573Z,100261.14
2019-01-13T21:22:35.698Z,100260.16
2019-01-13T21:25:05.715Z,100264.13
2019-01-13T21:27:34.495Z,100269.10
2019-01-13T21:30:03.531Z,100274.78
2019-01-13T21:32:32.471Z,100280.14
2019-01-13T21:35:01.432Z,100281.12
2019-01-13T21:37:30.096Z,100290.91
2019-01-13T21:39:58.964Z,100295.41
2019-01-13T21:42:27.750Z,100296.88
2019-01-13T21:44:56.567Z,100313.14
2019-01-13T21:47:25.369Z,100293.63
2019-01-13T21:49:54.226Z,100304.16
2019-01-13T21:52:23.083Z,100309.41
2019-01-13T21:54:51.916Z,100312.47
2019-01-13T21:57:21.444Z,100314.77
2019-01-13T21:59:50.251Z,100314.14
2019-01-13T22:02:19.054Z,100310.59
2019-01-13T22:04:47.843Z,100296.92
2019-01-13T22:07:16.623Z,100295.83
2019-01-13T22:09:45.428Z,100295.91
2019-01-13T22:12:20.980Z,100294.41
2019-01-13T22:14:49.815Z,100292.73
2019-01-13T22:17:18.630Z,100300.02
2019-01-13T22:19:47.460Z,100310.12
2019-01-13T22:22:16.231Z,100323.12
2019-01-13T22:24:45.033Z,100315.98
2019-01-13T22:27:13.816Z,100327.78
2019-01-13T22:29:42.679Z,100338.40
2019-01-13T22:32:11.463Z,100338.21
2019-01-13T22:37:15.335Z,100351.48
2019-01-13T22:39:44.140Z,100370.21
2019-01-13T22:42:12.928Z,100390.81
2019-01-13T22:44:41.705Z,100363.77
2019-01-13T22:47:10.489Z,100351.98
2019-01-13T22:49:39.263Z,100340.95
2019-01-13T22:52:08.101Z,100347.64
2019-01-13T22:54:36.896Z,100351.88
2019-01-13T22:57:05.743Z,100354.81
2019-01-13T22:59:34.604Z,100347.58
2019-01-13T23:02:03.423Z,100361.62
2019-01-13T23:04:32.239Z,100361.80
2019-01-13T23:07:01.025Z,100358.33
2019-01-13T23:09:29.867Z,100375.45
2019-01-13T23:11:58.767Z,100383.29
2019-01-13T23:14:27.576Z,100385.38
2019-01-13T23:16:56.358Z,100372.57
2019-01-13T23:19:25.131Z,100383.79
2019-01-13T23:21:54.036Z,100381.42
2019-01-13T23:24:22.935Z,100385.67
2019-01-13T23:26:51.768Z,100389.36
2019-01-13T23:29:20.586Z,100403.01
2019-01-13T23:31:49.412Z,100398.16
2019-01-13T23:34:18.183Z,100404.48
2019-01-13T23:36:46.955Z,100394.77
2019-01-13T23:39:15.755Z,100402.70
2019-01-13T23:41:44.585Z,100400.37
2019-01-13T23:44:13.431Z,100409.98
2019-01-13T23:46:42.199Z,100398.59
2019-01-13T23:49:10.995Z,100411.17
2019-01-13T23:51:39.774Z,100406.91
2019-01-13T23:54:08.603Z,100413.47
2019-01-13T23:56:37.461Z,100417.84
2019-01-13T23:59:06.239Z,100419.22
